createdAt,value
2019-06-08T00:02:23.002Z,19.40
2019-06-08T00:04:55.244Z,19.17
2019-06-08T00:07:27.244Z,20.52
2019-06-08T00:09:59.311Z,18.45
2019-06-08T00:12:31.318Z,18.50
2019-06-08T00:15:03.764Z,20.52
2019-06-08T00:17:38.751Z,19.27
2019-06-08T00:20:09.739Z,23.45
2019-06-08T00:22:41.860Z,20.90
2019-06-08T00:25:15.806Z,22.05
2019-06-08T00:27:48.017Z,20.52
2019-06-08T00:30:20.259Z,26.73
2019-06-08T00:32:52.288Z,24.05
2019-06-08T00:35:24.948Z,26.00
2019-06-08T00:38:00.127Z,23.57
2019-06-08T00:40:32.173Z,22.10
2019-06-08T00:43:04.082Z,22.93
2019-06-08T00:45:36.075Z,23.20
2019-06-08T00:48:08.068Z,27.15
2019-06-08T00:50:39.956Z,23.05
2019-06-08T00:53:11.957Z,21.65
2019-06-08T00:55:43.937Z,25.72
2019-06-08T00:58:15.895Z,24.52
2019-06-08T01:00:49.099Z,24.07
2019-06-08T01:03:21.653Z,28.57
2019-06-08T01:05:53.763Z,23.15
2019-06-08T01:08:25.731Z,30.48
2019-06-08T01:10:57.793Z,29.00
2019-06-08T01:13:29.771Z,30.52
2019-06-08T01:16:02.273Z,28.55
2019-06-08T01:18:34.311Z,30.35
2019-06-08T01:21:06.541Z,26.87
2019-06-08T01:23:38.428Z,28.27
2019-06-08T01:26:10.335Z,28.23
2019-06-08T01:28:42.226Z,30.80
2019-06-08T01:31:14.145Z,27.70
2019-06-08T01:33:46.188Z,29.98
2019-06-08T01:36:18.273Z,30.08
2019-06-08T01:38:50.301Z,27.15
2019-06-08T01:41:23.239Z,26.55
2019-06-08T01:43:55.400Z,29.48
2019-06-08T01:46:28.234Z,27.73
2019-06-08T01:49:00.269Z,27.60
2019-06-08T01:51:32.782Z,30.55
2019-06-08T01:54:05.762Z,30.02
2019-06-08T01:56:37.817Z,27.95
2019-06-08T01:59:09.787Z,27.22
2019-06-08T02:01:41.796Z,32.75
2019-06-08T02:04:13.764Z,28.95
2019-06-08T02:06:45.878Z,30.12
2019-06-08T02:09:17.797Z,29.77
2019-06-08T02:11:49.780Z,27.75
2019-06-08T02:14:21.745Z,33.25
2019-06-08T02:16:53.837Z,31.17
2019-06-08T02:19:26.542Z,38.95
2019-06-08T02:21:58.570Z,33.95
2019-06-08T02:25:03.792Z,32.40
2019-06-08T02:27:48.901Z,28.10
2019-06-08T02:30:22.711Z,29.27
2019-06-08T02:33:28.329Z,28.47
2019-06-08T02:36:13.444Z,28.02
2019-06-08T02:38:47.088Z,34.20
2019-06-08T02:41:51.417Z,35.63
2019-06-08T02:44:25.034Z,34.95
2019-06-08T02:46:58.587Z,28.45
2019-06-08T02:49:33.221Z,36.30
2019-06-08T02:52:07.255Z,31.12
2019-06-08T02:54:41.652Z,31.17
2019-06-08T02:57:15.559Z,35.95
2019-06-08T02:59:50.676Z,32.90
2019-06-08T03:02:29.638Z,31.55
2019-06-08T03:05:04.751Z,33.20
2019-06-08T03:07:42.341Z,37.30
2019-06-08T03:10:24.934Z,37.75
2019-06-08T03:13:12.069Z,39.13
2019-06-08T03:16:16.756Z,40.45
2019-06-08T03:18:50.333Z,35.83
2019-06-08T03:21:23.976Z,37.48
2019-06-08T03:24:09.342Z,38.85
2019-06-08T03:26:44.312Z,40.60
2019-06-08T03:29:17.865Z,38.80
2019-06-08T03:31:55.534Z,38.90
2019-06-08T03:34:23.796Z,37.53
2019-06-08T03:36:57.314Z,40.30
2019-06-08T03:39:29.436Z,40.85
2019-06-08T03:42:01.415Z,45.60
2019-06-08T03:44:34.237Z,44.38
2019-06-08T03:47:06.278Z,41.92
2019-06-08T03:49:50.709Z,41.95
2019-06-08T03:52:11.773Z,36.75
2019-06-08T03:54:45.236Z,39.35
2019-06-08T03:57:17.360Z,39.55
2019-06-08T03:59:49.454Z,38.28
2019-06-08T04:02:21.685Z,34.10
2019-06-08T04:04:54.064Z,39.60
2019-06-08T04:07:26.028Z,39.10
2019-06-08T04:09:59.186Z,37.25
2019-06-08T04:12:31.088Z,40.23
2019-06-08T04:15:03.695Z,40.60
2019-06-08T04:17:35.723Z,37.90
2019-06-08T04:20:11.641Z,42.10
2019-06-08T04:22:47.094Z,43.75
2019-06-08T04:25:20.460Z,39.83
2019-06-08T04:27:52.500Z,41.05
2019-06-08T04:30:24.593Z,41.45
2019-06-08T04:32:56.637Z,33.70
2019-06-08T04:35:28.683Z,43.28
2019-06-08T04:38:00.823Z,37.65
2019-06-08T04:40:32.954Z,43.40
2019-06-08T04:43:05.479Z,40.00
2019-06-08T04:45:40.920Z,38.30
2019-06-08T04:48:12.513Z,42.75
2019-06-08T04:50:45.420Z,46.33
2019-06-08T04:53:18.189Z,41.73
2019-06-08T04:55:50.172Z,42.00
2019-06-08T04:58:22.305Z,37.08
2019-06-08T05:00:54.391Z,41.45
2019-06-08T05:03:26.493Z,55.00
2019-06-08T05:05:59.571Z,47.83
2019-06-08T05:08:32.025Z,50.48
2019-06-08T05:11:04.393Z,45.85
2019-06-08T05:13:36.768Z,46.98
2019-06-08T05:16:08.800Z,43.95
2019-06-08T05:18:41.354Z,43.80
2019-06-08T05:21:13.681Z,41.65
2019-06-08T05:23:47.877Z,46.60
2019-06-08T05:26:20.713Z,47.62
2019-06-08T05:28:53.182Z,46.23
2019-06-08T05:31:25.400Z,42.83
2019-06-08T05:33:57.983Z,36.40
2019-06-08T05:36:30.381Z,42.78
2019-06-08T05:39:02.835Z,38.25
2019-06-08T05:41:36.152Z,38.60
2019-06-08T05:44:08.843Z,42.27
2019-06-08T05:46:41.756Z,48.60
2019-06-08T05:49:15.391Z,39.13
2019-06-08T05:51:47.852Z,38.38
2019-06-08T05:54:27.446Z,38.90
2019-06-08T05:57:02.778Z,34.10
2019-06-08T05:59:39.764Z,32.88
2019-06-08T06:02:15.030Z,38.02
2019-06-08T06:04:52.207Z,27.67
2019-06-08T06:07:26.511Z,31.40
2019-06-08T06:09:59.213Z,30.68
2019-06-08T06:12:31.794Z,31.80
2019-06-08T06:15:06.198Z,32.33
2019-06-08T06:17:38.424Z,33.55
2019-06-08T06:20:14.696Z,33.55
2019-06-08T06:22:49.505Z,28.47
2019-06-08T06:25:21.960Z,34.15
2019-06-08T06:27:54.480Z,30.00
2019-06-08T06:30:29.557Z,26.95
2019-06-08T06:33:01.545Z,25.62
2019-06-08T06:35:35.601Z,23.32
2019-06-08T06:38:08.746Z,25.25
2019-06-08T06:40:41.899Z,27.07
2019-06-08T06:43:13.927Z,22.87
2019-06-08T06:45:46.332Z,19.35
2019-06-08T06:48:18.308Z,26.27
2019-06-08T06:50:50.461Z,27.07
2019-06-08T06:53:22.392Z,20.12
2019-06-08T06:55:54.310Z,27.80
2019-06-08T06:58:26.357Z,29.75
2019-06-08T07:00:58.365Z,24.95
2019-06-08T07:03:30.346Z,22.20
2019-06-08T07:06:02.347Z,23.80
2019-06-08T07:08:36.365Z,24.55
2019-06-08T07:11:09.647Z,13.30
2019-06-08T07:13:41.636Z,25.88
2019-06-08T07:16:18.449Z,24.37
2019-06-08T07:18:48.210Z,22.30
2019-06-08T07:21:21.242Z,28.70
2019-06-08T07:23:54.540Z,26.87
2019-06-08T07:26:28.850Z,23.52
2019-06-08T07:29:00.917Z,24.57
2019-06-08T07:31:32.962Z,32.70
2019-06-08T07:34:05.091Z,18.10
2019-06-08T07:36:37.072Z,23.27
2019-06-08T07:39:09.581Z,20.77
2019-06-08T07:41:41.591Z,22.32
2019-06-08T07:44:13.557Z,22.75
2019-06-08T07:46:46.954Z,23.07
2019-06-08T07:49:21.329Z,21.60
2019-06-08T07:52:02.463Z,20.77
2019-06-08T07:54:28.352Z,23.60
2019-06-08T07:57:00.505Z,24.98
2019-06-08T07:59:32.568Z,20.70
2019-06-08T08:02:04.528Z,23.77
2019-06-08T08:04:36.501Z,22.00
2019-06-08T08:07:08.542Z,19.65
2019-06-08T08:09:40.482Z,19.35
2019-06-08T08:12:12.704Z,17.98
2019-06-08T08:14:44.744Z,18.57
2019-06-08T08:17:16.733Z,20.80
2019-06-08T08:19:48.975Z,19.65
2019-06-08T08:22:25.934Z,19.37
2019-06-08T08:24:57.927Z,18.45
2019-06-08T08:27:28.494Z,13.35
2019-06-08T08:30:01.839Z,7.92
2019-06-08T08:32:34.353Z,11.10
2019-06-08T08:35:08.785Z,11.40
2019-06-08T08:37:41.172Z,7.53
2019-06-08T08:40:13.304Z,8.48
2019-06-08T08:42:45.442Z,9.23
2019-06-08T08:45:18.321Z,7.80
2019-06-08T08:47:51.161Z,7.20
2019-06-08T08:50:24.344Z,4.22
2019-06-08T08:53:05.284Z,6.60
2019-06-08T08:55:37.981Z,5.08
2019-06-08T08:58:10.066Z,11.28
2019-06-08T09:00:41.992Z,2.50
2019-06-08T09:03:28.530Z,7.10
2019-06-08T09:05:48.298Z,6.37
2019-06-08T09:08:29.753Z,5.03
2019-06-08T09:11:03.868Z,4.97
2019-06-08T09:13:37.697Z,9.45
2019-06-08T09:16:09.884Z,10.90
2019-06-08T09:18:41.937Z,3.12
2019-06-08T09:21:13.967Z,10.05
2019-06-08T09:23:48.431Z,6.42
2019-06-08T09:26:19.733Z,3.60
2019-06-08T09:28:53.142Z,3.45
2019-06-08T09:31:28.071Z,3.80
2019-06-08T09:34:08.677Z,41.75
2019-06-08T09:36:32.936Z,3.35
2019-06-08T09:39:12.313Z,8.35
2019-06-08T09:41:40.698Z,10.90
2019-06-08T09:44:12.786Z,1.60
2019-06-08T09:46:44.839Z,4.55
2019-06-08T09:49:18.857Z,7.12
2019-06-08T09:51:51.183Z,13.18
2019-06-08T09:54:23.263Z,11.68
2019-06-08T09:56:55.776Z,5.25
2019-06-08T09:59:28.514Z,6.20
2019-06-08T10:02:07.421Z,2.25
2019-06-08T10:04:35.203Z,1.72
2019-06-08T10:07:08.905Z,2.72
2019-06-08T10:09:43.337Z,1.07
2019-06-08T10:12:18.038Z,4.15
2019-06-08T10:14:49.843Z,5.97
2019-06-08T10:17:21.945Z,3.25
2019-06-08T10:19:54.657Z,4.62
2019-06-08T10:22:28.270Z,1.52
2019-06-08T10:25:04.150Z,5.65
2019-06-08T10:27:34.165Z,3.12
2019-06-08T10:30:11.095Z,4.00
2019-06-08T10:32:43.126Z,6.87
2019-06-08T10:35:18.513Z,3.33
2019-06-08T10:37:51.183Z,2.30
2019-06-08T10:40:24.360Z,1.80
2019-06-08T10:42:59.798Z,6.15
2019-06-08T10:45:30.088Z,5.65
2019-06-08T10:48:03.228Z,2.33
2019-06-08T10:50:35.625Z,3.15
2019-06-08T10:53:10.532Z,7.08
2019-06-08T10:55:41.185Z,1.90
2019-06-08T10:58:13.179Z,6.10
2019-06-08T11:00:45.309Z,5.22
2019-06-08T11:03:17.505Z,1.90
2019-06-08T11:05:51.332Z,3.17
2019-06-08T11:08:23.047Z,2.70
2019-06-08T11:10:57.495Z,5.03
2019-06-08T11:13:28.828Z,3.42
2019-06-08T11:16:02.471Z,7.42
2019-06-08T11:18:34.391Z,3.52
2019-06-08T11:21:09.932Z,3.92
2019-06-08T11:23:41.656Z,5.30
2019-06-08T11:26:22.620Z,3.22
2019-06-08T11:28:50.827Z,3.00
2019-06-08T11:31:21.199Z,1.02
2019-06-08T11:33:53.227Z,2.08
2019-06-08T11:36:25.174Z,3.12
2019-06-08T11:38:59.201Z,7.95
2019-06-08T11:41:30.724Z,4.97
2019-06-08T11:44:03.868Z,2.00
2019-06-08T11:46:38.406Z,9.35
2019-06-08T11:49:13.454Z,1.62
2019-06-08T11:51:43.818Z,2.33
2019-06-08T11:54:29.487Z,2.17
2019-06-08T11:56:52.230Z,2.15
2019-06-08T11:59:25.658Z,2.10
2019-06-08T12:01:58.625Z,2.00
2019-06-08T12:04:30.660Z,4.12
2019-06-08T12:07:02.583Z,1.05
2019-06-08T12:09:34.608Z,3.42
2019-06-08T12:12:09.216Z,6.78
2019-06-08T12:14:40.572Z,6.42
2019-06-08T12:17:18.870Z,5.70
2019-06-08T12:19:49.533Z,2.75
2019-06-08T12:22:21.923Z,2.25
2019-06-08T12:24:53.986Z,2.30
2019-06-08T12:27:33.142Z,3.75
2019-06-08T12:29:59.536Z,9.63
2019-06-08T12:32:31.628Z,7.10
2019-06-08T12:35:05.110Z,10.75
2019-06-08T12:37:38.684Z,2.92
2019-06-08T12:40:13.284Z,3.65
2019-06-08T12:42:45.526Z,3.05
2019-06-08T12:45:19.916Z,4.08
2019-06-08T12:47:55.064Z,3.77
2019-06-08T12:50:28.815Z,5.05
2019-06-08T12:53:01.008Z,3.70
2019-06-08T12:55:33.000Z,1.92
2019-06-08T12:58:08.131Z,2.08
2019-06-08T13:00:40.342Z,1.60
2019-06-08T13:03:12.938Z,2.62
2019-06-08T13:05:45.116Z,2.02
2019-06-08T13:08:20.055Z,8.00
2019-06-08T13:10:50.664Z,10.55
2019-06-08T13:13:24.496Z,3.45
2019-06-08T13:15:58.035Z,11.18
2019-06-08T13:18:30.257Z,33.55
2019-06-08T13:21:15.567Z,9.40
2019-06-08T13:23:40.808Z,12.65
2019-06-08T13:26:10.892Z,3.75
2019-06-08T13:28:43.281Z,3.77
2019-06-08T13:31:18.250Z,5.92
2019-06-08T13:33:49.203Z,4.42
2019-06-08T13:36:26.093Z,1.95
2019-06-08T13:38:54.825Z,4.17
2019-06-08T13:41:29.646Z,2.33
2019-06-08T13:44:00.319Z,22.60
2019-06-08T13:46:32.431Z,7.58
2019-06-08T13:49:04.478Z,4.03
2019-06-08T13:51:38.432Z,4.87
2019-06-08T13:54:10.774Z,15.93
2019-06-08T13:56:42.892Z,1.05
2019-06-08T13:59:19.217Z,5.72
2019-06-08T14:01:51.238Z,4.50
2019-06-08T14:04:23.834Z,5.35
2019-06-08T14:06:58.121Z,2.80
2019-06-08T14:09:31.832Z,1.22
2019-06-08T14:12:03.854Z,2.60
2019-06-08T14:14:39.690Z,3.25
2019-06-08T14:17:09.407Z,2.30
2019-06-08T14:19:41.364Z,4.03
2019-06-08T14:22:13.376Z,2.85
2019-06-08T14:24:47.788Z,8.30
2019-06-08T14:27:19.360Z,6.83
2019-06-08T14:29:51.479Z,4.85
2019-06-08T14:32:23.876Z,7.35
2019-06-08T14:34:58.246Z,13.90
2019-06-08T14:37:30.558Z,4.33
2019-06-08T14:40:02.700Z,5.83
2019-06-08T14:42:35.401Z,3.30
2019-06-08T14:45:10.873Z,2.35
2019-06-08T14:47:42.454Z,6.05
2019-06-08T14:50:14.820Z,7.80
2019-06-08T14:52:47.926Z,3.10
2019-06-08T14:55:21.745Z,2.37
2019-06-08T14:57:54.376Z,3.00
2019-06-08T15:00:27.527Z,3.12
2019-06-08T15:03:00.286Z,10.25
2019-06-08T15:05:32.805Z,2.45
2019-06-08T15:08:04.873Z,2.85
2019-06-08T15:10:38.474Z,5.40
2019-06-08T15:13:10.705Z,1.32
2019-06-08T15:15:42.753Z,2.30
2019-06-08T15:18:14.576Z,3.55
2019-06-08T15:20:48.101Z,4.55
2019-06-08T15:23:22.868Z,5.90
2019-06-08T15:25:53.937Z,3.10
2019-06-08T15:28:29.283Z,2.45
2019-06-08T15:31:00.071Z,2.87
2019-06-08T15:33:33.629Z,1.75
2019-06-08T15:36:05.760Z,4.15
2019-06-08T15:38:38.152Z,2.95
2019-06-08T15:41:10.223Z,1.15
2019-06-08T15:43:42.190Z,4.67
2019-06-08T15:46:14.253Z,4.20
2019-06-08T15:48:48.514Z,5.67
2019-06-08T15:51:19.982Z,2.70
2019-06-08T15:53:52.005Z,5.70
2019-06-08T15:56:40.620Z,1.80
2019-06-08T15:58:58.799Z,2.90
2019-06-08T16:01:31.557Z,5.70
2019-06-08T16:04:04.244Z,5.25
2019-06-08T16:06:36.291Z,3.62
2019-06-08T16:09:09.719Z,1.37
2019-06-08T16:11:41.676Z,3.02
2019-06-08T16:14:13.554Z,3.55
2019-06-08T16:16:45.701Z,6.75
2019-06-08T16:19:17.634Z,1.67
2019-06-08T16:21:49.560Z,2.98
2019-06-08T16:24:21.570Z,38.90
2019-06-08T16:26:53.816Z,1.95
2019-06-08T16:29:26.794Z,2.20
2019-06-08T16:31:58.860Z,2.42
2019-06-08T16:34:31.364Z,4.72
2019-06-08T16:37:03.442Z,5.58
2019-06-08T16:39:35.367Z,2.22
2019-06-08T16:42:07.328Z,2.70
2019-06-08T16:44:39.364Z,2.25
2019-06-08T16:47:12.387Z,5.33
2019-06-08T16:49:44.267Z,2.87
2019-06-08T16:52:17.280Z,3.33
2019-06-08T16:54:49.402Z,2.92
2019-06-08T16:57:21.376Z,2.02
2019-06-08T16:59:53.330Z,2.70
2019-06-08T17:02:26.538Z,6.85
2019-06-08T17:04:59.609Z,2.47
2019-06-08T17:07:32.151Z,4.40
2019-06-08T17:10:06.567Z,7.58
2019-06-08T17:12:39.120Z,4.17
2019-06-08T17:15:13.255Z,5.22
2019-06-08T17:17:45.269Z,1.70
2019-06-08T17:20:17.489Z,3.45
2019-06-08T17:22:50.455Z,1.90
2019-06-08T17:25:22.394Z,3.22
2019-06-08T17:27:54.497Z,11.12
2019-06-08T17:30:26.390Z,3.27
2019-06-08T17:32:58.485Z,4.58
2019-06-08T17:35:31.397Z,8.08
2019-06-08T17:38:03.551Z,6.22
2019-06-08T17:40:35.860Z,6.95
2019-06-08T17:43:07.934Z,4.35
2019-06-08T17:45:41.114Z,8.00
2019-06-08T17:48:13.243Z,6.90
2019-06-08T17:50:45.204Z,7.17
2019-06-08T17:53:17.089Z,5.60
2019-06-08T17:55:49.178Z,5.15
2019-06-08T17:58:21.727Z,6.70
2019-06-08T18:00:54.007Z,7.08
2019-06-08T18:03:27.920Z,6.83
2019-06-08T18:06:00.028Z,6.28
2019-06-08T18:08:32.024Z,6.58
2019-06-08T18:11:03.972Z,9.50
2019-06-08T18:13:38.998Z,6.47
2019-06-08T18:16:09.580Z,10.10
2019-06-08T18:18:42.291Z,13.78
2019-06-08T18:21:17.565Z,8.38
2019-06-08T18:23:48.981Z,8.68
2019-06-08T18:26:21.152Z,7.58
2019-06-08T18:28:55.066Z,10.95
2019-06-08T18:31:27.639Z,7.08
2019-06-08T18:34:02.102Z,6.15
2019-06-08T18:36:35.625Z,7.70
2019-06-08T18:39:08.205Z,6.70
2019-06-08T18:41:41.183Z,8.80
2019-06-08T18:44:14.063Z,8.38
2019-06-08T18:46:48.084Z,12.37
2019-06-08T18:49:19.653Z,11.80
2019-06-08T18:51:53.761Z,15.83
2019-06-08T18:54:27.853Z,17.60
2019-06-08T18:56:59.226Z,36.10
2019-06-08T18:59:31.202Z,20.68
2019-06-08T19:02:03.284Z,24.25
2019-06-08T19:04:37.433Z,22.25
2019-06-08T19:07:08.967Z,21.80
2019-06-08T19:09:42.623Z,23.32
2019-06-08T19:12:17.188Z,17.77
2019-06-08T19:14:51.974Z,22.22
2019-06-08T19:17:22.454Z,13.88
2019-06-08T19:19:54.366Z,9.88
2019-06-08T19:22:30.062Z,14.47
2019-06-08T19:25:00.214Z,12.13
2019-06-08T19:27:32.478Z,18.42
2019-06-08T19:30:06.226Z,20.45
2019-06-08T19:32:40.394Z,15.25
2019-06-08T19:35:12.301Z,17.32
2019-06-08T19:37:44.209Z,29.05
2019-06-08T19:40:17.645Z,19.42
2019-06-08T19:42:57.178Z,27.75
2019-06-08T19:45:23.806Z,25.97
2019-06-08T19:47:57.799Z,31.68
2019-06-08T19:50:29.566Z,26.27
2019-06-08T19:53:01.553Z,34.75
2019-06-08T19:55:33.910Z,38.13
2019-06-08T19:58:08.557Z,26.82
2019-06-08T20:00:40.604Z,23.30
2019-06-08T20:03:14.132Z,26.68
2019-06-08T20:05:50.122Z,26.90
2019-06-08T20:08:19.988Z,34.03
2019-06-08T20:10:52.186Z,21.00
2019-06-08T20:13:24.250Z,19.95
2019-06-08T20:15:59.603Z,17.07
2019-06-08T20:18:30.261Z,27.02
2019-06-08T20:21:02.246Z,25.08
2019-06-08T20:23:34.552Z,15.80
2019-06-08T20:26:08.385Z,11.75
2019-06-08T20:28:42.053Z,14.93
2019-06-08T20:31:15.229Z,10.38
2019-06-08T20:33:50.235Z,13.60
2019-06-08T20:36:20.891Z,11.53
2019-06-08T20:38:52.984Z,17.80
2019-06-08T20:41:27.597Z,16.10
2019-06-08T20:43:58.728Z,28.57
2019-06-08T20:46:30.667Z,34.55
2019-06-08T20:49:02.551Z,36.55
2019-06-08T20:51:34.487Z,37.75
2019-06-08T20:54:07.950Z,46.13
2019-06-08T20:56:40.076Z,42.08
2019-06-08T20:59:24.266Z,39.70
2019-06-08T21:01:48.353Z,45.92
2019-06-08T21:04:19.162Z,32.38
2019-06-08T21:06:52.822Z,31.30
2019-06-08T21:09:24.837Z,28.12
2019-06-08T21:11:58.749Z,34.35
2019-06-08T21:14:30.483Z,24.40
2019-06-08T21:17:03.041Z,26.77
2019-06-08T21:19:34.923Z,25.17
2019-06-08T21:22:08.204Z,20.23
2019-06-08T21:24:40.444Z,23.27
2019-06-08T21:27:12.335Z,33.63
2019-06-08T21:29:49.059Z,30.37
2019-06-08T21:32:20.976Z,30.40
2019-06-08T21:34:52.659Z,42.40
2019-06-08T21:37:27.902Z,36.75
2019-06-08T21:40:03.757Z,38.88
2019-06-08T21:42:33.855Z,32.60
2019-06-08T21:45:09.752Z,27.07
2019-06-08T21:47:42.159Z,29.37
2019-06-08T21:50:18.641Z,29.98
2019-06-08T21:52:54.698Z,33.65
2019-06-08T21:55:33.570Z,32.03
2019-06-08T21:58:07.865Z,37.48
2019-06-08T22:00:47.054Z,33.78
2019-06-08T22:03:19.004Z,46.50
2019-06-08T22:05:51.754Z,36.28
2019-06-08T22:08:23.683Z,36.95
2019-06-08T22:10:58.962Z,33.28
2019-06-08T22:13:29.500Z,37.40
2019-06-08T22:16:02.246Z,36.50
2019-06-08T22:18:35.095Z,31.00
2019-06-08T22:21:08.080Z,28.10
2019-06-08T22:24:07.995Z,26.62
2019-06-08T22:26:39.461Z,28.75
2019-06-08T22:29:12.417Z,38.78
2019-06-08T22:31:44.275Z,30.85
2019-06-08T22:34:17.471Z,28.57
2019-06-08T22:36:49.701Z,24.47
2019-06-08T22:39:22.945Z,24.90
2019-06-08T22:41:56.077Z,38.23
2019-06-08T22:44:28.532Z,29.85
2019-06-08T22:47:01.968Z,35.52
2019-06-08T22:49:34.027Z,42.75
2019-06-08T22:52:08.210Z,43.08
2019-06-08T22:54:39.494Z,35.40
2019-06-08T22:57:11.392Z,29.15
2019-06-08T22:59:43.344Z,39.15
2019-06-08T23:02:15.284Z,55.55
2019-06-08T23:05:01.332Z,30.37
2019-06-08T23:07:32.920Z,45.58
2019-06-08T23:10:22.833Z,50.95
2019-06-08T23:13:04.373Z,41.28
2019-06-08T23:15:38.055Z,33.60
2019-06-08T23:18:12.954Z,33.88
2019-06-08T23:20:48.082Z,38.40
2019-06-08T23:23:19.967Z,28.95
2019-06-08T23:25:52.150Z,28.70
2019-06-08T23:28:28.275Z,26.48
2019-06-08T23:31:10.707Z,30.08
2019-06-08T23:33:34.802Z,29.55
2019-06-08T23:36:43.481Z,21.82
2019-06-08T23:38:40.713Z,28.45
2019-06-08T23:41:12.815Z,30.30
2019-06-08T23:43:44.780Z,33.18
2019-06-08T23:46:18.142Z,31.05
2019-06-08T23:48:50.170Z,30.48
2019-06-08T23:51:22.233Z,27.48
2019-06-08T23:53:54.115Z,22.93
2019-06-08T23:56:27.746Z,20.23
2019-06-08T23:59:00.359Z,22.22
